Terminal Aerodrome Forecast
Issued by NWS Boston, MA

Current Version | Previous Version | Text Only | Print | Product List | Glossary On
Versions: 1 2 3 4 5 6 7 8 9 10 11 12 13 14 15 16 17 18 19 20
000 FTUS41 KBOX 010541 TAFBDL TAF KBDL 010541Z 0106/0212 02009KT P6SM OVC045 FM011300 01011G21KT P6SM OVC035 FM011500 02012G23KT P6SM OVC015 FM011700 01011G24KT P6SM -RA OVC015 FM012100 01013G26KT P6SM OVC015 FM020000 36013G29KT P6SM OVC025 FM020600 35014G27KT P6SM OVC050=

USA.gov is the U.S. government's official web portal to all federal, state and local government web resources and services.